createdAt,value
2022-08-03T14:17:04.409Z,51.70
2022-08-03T14:24:16.173Z,50.05
2022-08-03T14:26:42.790Z,49.98
2022-08-03T14:29:09.477Z,50.28
2022-08-03T14:32:12.218Z,49.05
2022-08-03T14:34:29.061Z,48.79
2022-08-03T14:36:55.548Z,48.93
2022-08-03T14:39:22.091Z,48.22
2022-08-03T14:41:48.630Z,48.38
2022-08-03T14:44:16.280Z,48.96
2022-08-03T14:46:42.749Z,48.68
2022-08-03T14:50:32.312Z,48.81
2022-08-03T14:51:55.762Z,49.19
2022-08-03T14:54:22.896Z,48.47
2022-08-03T14:56:49.443Z,48.81
2022-08-03T14:59:15.962Z,48.48
2022-08-03T15:02:05.603Z,48.75
2022-08-03T15:04:28.897Z,48.51
2022-08-03T15:06:55.381Z,48.36
2022-08-03T15:09:23.936Z,48.34
2022-08-03T15:11:50.584Z,48.39
2022-08-03T15:14:18.835Z,48.32
2022-08-03T15:16:54.872Z,48.02
2022-08-03T15:20:03.517Z,48.46
2022-08-03T15:22:07.928Z,48.23
2022-08-03T15:24:35.683Z,48.51
2022-08-03T15:27:02.266Z,48.35
2022-08-03T15:30:08.168Z,48.12
2022-08-03T15:32:19.477Z,48.25
2022-08-03T15:34:50.386Z,48.50
2022-08-03T15:37:17.264Z,48.41
2022-08-03T15:39:59.027Z,48.17
2022-08-03T15:42:30.169Z,48.47
2022-08-03T15:44:56.780Z,48.42
2022-08-03T15:47:23.255Z,48.28
2022-08-03T15:49:49.725Z,48.16
2022-08-03T15:52:16.203Z,48.24
2022-08-03T15:54:42.780Z,48.13
2022-08-03T15:57:09.342Z,48.04
2022-08-03T15:59:35.810Z,48.04
2022-08-03T16:02:02.346Z,48.18
2022-08-03T16:04:28.922Z,48.05
2022-08-03T16:06:55.390Z,47.96
2022-08-03T16:09:24.373Z,47.97
2022-08-03T16:12:14.538Z,48.14
2022-08-03T16:14:54.191Z,48.23
2022-08-03T16:17:22.237Z,47.84
2022-08-03T16:19:49.175Z,48.13
2022-08-03T16:22:17.366Z,47.90
2022-08-03T16:24:46.972Z,48.16
2022-08-03T16:27:17.505Z,47.88
2022-08-03T16:30:00.006Z,47.84
2022-08-03T16:32:26.458Z,47.82
2022-08-03T16:34:56.349Z,47.96
2022-08-03T16:37:54.653Z,47.80
2022-08-03T16:40:19.297Z,47.95
2022-08-03T16:42:48.999Z,48.00
2022-08-03T16:46:06.546Z,47.82
2022-08-03T16:48:18.048Z,47.57
2022-08-03T16:51:55.361Z,47.79
2022-08-03T16:54:07.719Z,47.77
2022-08-03T16:56:39.059Z,47.76
2022-08-03T17:05:47.797Z,47.80
2022-08-03T17:08:26.610Z,47.59
2022-08-03T17:10:57.839Z,47.62
2022-08-03T17:13:38.757Z,47.81
2022-08-03T17:16:17.577Z,47.84
2022-08-03T17:18:55.218Z,47.46
2022-08-03T17:21:29.326Z,47.61
2022-08-03T17:24:22.499Z,47.50
2022-08-03T17:26:53.972Z,47.66
2022-08-03T17:29:25.141Z,47.39
2022-08-03T17:31:52.932Z,47.51
2022-08-03T17:34:26.498Z,47.55
2022-08-03T17:37:12.044Z,47.54
2022-08-03T17:39:58.309Z,47.82
2022-08-03T17:42:31.923Z,47.79
2022-08-03T17:45:03.822Z,47.66
2022-08-03T17:47:41.248Z,47.84
2022-08-03T17:50:23.912Z,47.95
2022-08-03T17:53:07.469Z,48.16
2022-08-03T17:55:56.582Z,48.41
2022-08-03T17:59:08.217Z,48.23
2022-08-03T18:02:39.629Z,48.39
2022-08-03T18:05:17.722Z,48.50
2022-08-03T18:07:49.621Z,48.50
2022-08-03T18:10:29.466Z,48.99
2022-08-03T18:13:21.921Z,49.04
2022-08-03T18:16:01.469Z,48.98
2022-08-03T18:18:39.819Z,49.25
2022-08-03T18:21:16.946Z,49.09
2022-08-03T18:23:50.179Z,49.44
2022-08-03T18:26:20.436Z,49.44
2022-08-03T18:28:52.631Z,49.26
2022-08-03T18:32:00.267Z,49.67
2022-08-03T18:34:33.241Z,49.37
2022-08-03T18:37:01.041Z,50.11
2022-08-03T18:39:49.858Z,49.94
2022-08-03T18:42:25.827Z,49.74
2022-08-03T18:45:54.993Z,50.06
2022-08-03T18:48:08.774Z,50.21
2022-08-03T18:50:41.329Z,50.07
2022-08-03T18:54:07.464Z,50.21
2022-08-03T18:56:54.427Z,50.46
2022-08-03T18:59:40.439Z,50.42
2022-08-03T19:02:33.993Z,50.38
2022-08-03T19:08:32.958Z,50.98
2022-08-03T19:11:03.647Z,50.82
2022-08-03T19:13:50.346Z,50.80
2022-08-03T19:16:51.946Z,51.21
2022-08-03T19:19:23.975Z,50.81
2022-08-03T19:21:52.304Z,51.00
2022-08-03T19:24:23.241Z,51.16
2022-08-03T19:26:57.838Z,50.92
2022-08-03T19:29:58.009Z,51.39
2022-08-03T19:32:21.079Z,51.01
2022-08-03T19:34:50.664Z,51.21
2022-08-03T19:37:19.532Z,51.31
2022-08-03T19:39:56.740Z,51.01
2022-08-03T19:42:37.794Z,51.30
2022-08-03T19:48:09.678Z,51.45
2022-08-03T19:50:44.402Z,51.22
2022-08-03T19:53:13.100Z,51.15
2022-08-03T19:55:47.486Z,51.19
2022-08-03T19:58:17.794Z,51.31
2022-08-03T20:00:55.687Z,51.03
2022-08-03T20:03:24.820Z,51.37
2022-08-03T20:05:51.850Z,51.24
2022-08-03T20:08:20.638Z,51.15
2022-08-03T20:10:49.276Z,51.33
2022-08-03T20:13:19.360Z,51.32
2022-08-03T20:15:46.147Z,51.60
2022-08-03T20:18:16.665Z,51.59
2022-08-03T20:20:48.068Z,51.62
2022-08-03T20:23:19.586Z,51.61
2022-08-03T20:25:58.221Z,51.57
2022-08-03T20:28:49.734Z,51.38
2022-08-03T20:31:36.278Z,51.79
2022-08-03T20:34:03.930Z,51.42
2022-08-03T20:36:30.414Z,51.72
2022-08-03T20:38:57.701Z,51.43
2022-08-03T20:41:24.789Z,51.40
2022-08-03T20:43:51.328Z,51.80
2022-08-03T20:46:32.853Z,51.81
2022-08-03T20:49:06.469Z,51.93
2022-08-03T20:51:49.727Z,51.96
2022-08-03T20:54:22.701Z,51.85
2022-08-03T20:56:58.504Z,52.02
2022-08-03T20:59:36.604Z,51.84
2022-08-03T21:02:05.813Z,51.58
2022-08-03T21:04:32.296Z,52.08
2022-08-03T21:07:03.863Z,52.11
2022-08-03T21:09:55.923Z,52.21
2022-08-03T21:12:38.228Z,52.13
2022-08-03T21:13:01.260Z,50.69
2022-08-03T21:13:08.415Z,51.06
2022-08-03T21:15:09.143Z,52.34
2022-08-03T21:17:41.464Z,52.35
2022-08-03T21:20:10.708Z,52.17
2022-08-03T21:22:38.864Z,52.43
2022-08-03T21:25:09.367Z,52.89
2022-08-03T21:27:36.669Z,52.42
2022-08-03T21:30:07.994Z,52.48
2022-08-03T21:32:34.472Z,52.46
2022-08-03T21:35:01.295Z,52.46
2022-08-03T21:37:28.396Z,52.71
2022-08-03T21:39:56.210Z,52.77
2022-08-03T21:42:23.848Z,52.66
2022-08-03T21:44:52.415Z,52.64
2022-08-03T21:47:22.223Z,52.58
2022-08-03T21:50:08.332Z,52.89
2022-08-03T21:52:42.005Z,52.60
2022-08-03T21:55:09.035Z,52.89
2022-08-03T21:57:51.547Z,52.77
2022-08-03T22:00:20.121Z,52.75
2022-08-03T22:02:55.750Z,52.58
2022-08-03T22:05:29.154Z,52.63
2022-08-03T22:08:13.330Z,52.69
2022-08-03T22:10:40.422Z,52.57
2022-08-03T22:13:07.001Z,52.63
2022-08-03T22:15:33.578Z,52.65
2022-08-03T22:18:03.429Z,52.72
2022-08-03T22:20:30.591Z,52.95
2022-08-03T22:23:01.090Z,52.73
2022-08-03T22:25:30.538Z,53.02
2022-08-03T22:27:59.299Z,52.42
2022-08-03T22:30:25.893Z,52.98
2022-08-03T22:32:54.867Z,52.86
2022-08-03T22:35:24.796Z,52.82
2022-08-03T22:37:54.540Z,53.04
2022-08-03T22:40:21.672Z,52.76
2022-08-03T22:42:52.583Z,52.81
2022-08-03T22:46:09.247Z,52.77
2022-08-03T22:48:07.630Z,52.61
2022-08-03T22:50:35.131Z,52.67
2022-08-03T22:53:02.019Z,52.81
2022-08-03T22:55:28.777Z,52.47
2022-08-03T22:57:55.684Z,52.52
2022-08-03T23:00:24.072Z,52.74
2022-08-03T23:02:53.143Z,52.36
2022-08-03T23:06:02.319Z,52.49
2022-08-03T23:08:24.056Z,52.58
2022-08-03T23:10:52.098Z,52.53
2022-08-03T23:13:20.033Z,52.20
2022-08-03T23:15:57.949Z,52.62
2022-08-03T23:18:28.095Z,52.34
2022-08-03T23:20:57.980Z,52.60
2022-08-03T23:23:24.489Z,52.61
2022-08-03T23:25:51.888Z,52.52
2022-08-03T23:28:19.161Z,52.85
2022-08-03T23:30:47.448Z,52.27
2022-08-03T23:33:16.330Z,52.36
2022-08-03T23:36:17.300Z,52.36
2022-08-03T23:38:46.131Z,52.78
2022-08-03T23:41:13.434Z,52.59
2022-08-03T23:43:52.191Z,52.33
2022-08-03T23:46:23.721Z,52.33
2022-08-03T23:48:51.029Z,52.14
2022-08-03T23:51:47.851Z,52.51
2022-08-03T23:54:35.642Z,52.44
2022-08-03T23:57:02.010Z,52.40
2022-08-03T23:59:51.458Z,52.58
